Terminal Aerodrome Forecast
Issued by NWS

Home | Current Version | Previous Version | Text Only | Print | Product List | Glossary On
Versions: 1 2 3 4 5 6 7 8 9 10 11 12 13 14 15
000
FTUS41 KCAR 181120
TAFHUL
TAF
KHUL 181120Z 1812/1912 09005KT P6SM OVC120
     FM181600 11006KT P6SM SCT025 OVC100
     FM190400 13005KT P6SM OVC015
     FM190600 14005KT P6SM OVC008
     FM190800 16005KT 2SM -SN OVC008=

USA.gov is the U.S. government's official web portal to all federal, state and local government web resources and services.